Pagrindinis puslapis
METAR-TAF:

METAR-TAF

Oro uostai :

Egegik, Aliaska, Jungtinės Amerikos Valstijos

platuma: 58-11-07N, ilguma: 157-23-08W, Aukštis: 28 m

Dabartinis oras

Ataskaita buvo paskelbta 19 minutes, ne 20:56 UTC
Vėjas 6 kt iš Vakarų/Šiaurės Vakarų
Temperatūra 11°C
Drėgmė 62%
Slėgis 1007 hPa
Matomumas: 16.1 km
Giedras dangus

METAR: PAII 212056Z AUTO 30006KT 10SM CLR 11/04 A2974 RMK AO2 SLP069 T01110044 50001 TSNO

Laikas: 13:15 (21:15 UTC)


TAF: trūkstamas

Orai ataskaitas ir orų prognozės (METAR, TAF).

turimą stotys yra geltonos ir raudonos taškus žemėlapyje.

Perkelti pele per norėdami pamatyti stoties vardą.

Tada spustelėkite, norėdami matyti oro stebėjimo ir prognozės.

Norėdami pakeisti žemėlapį: spustelėkite ant žalios mygtukų su juodo kryžiaus žemyn,; žalią mygtuką su brūkšneliu, jei norite nutolinti; arba žalių rodyklių gretimoms žemėlapius.


METAR-TAF: